createdAt,value
2019-02-15T00:00:43.161Z,0.00
2019-02-15T00:01:43.295Z,0.00
2019-02-15T00:02:43.423Z,0.00
2019-02-15T00:03:43.547Z,0.00
2019-02-15T00:04:43.676Z,0.00
2019-02-15T00:05:43.797Z,0.00
2019-02-15T00:06:43.926Z,0.00
2019-02-15T00:07:44.050Z,0.00
2019-02-15T00:08:44.178Z,0.00
2019-02-15T00:09:44.305Z,0.00
2019-02-15T00:10:44.432Z,0.00
2019-02-15T00:11:44.550Z,0.00
2019-02-15T00:12:44.673Z,0.00
2019-02-15T00:13:44.807Z,0.00
2019-02-15T00:14:44.936Z,0.00
2019-02-15T00:15:45.065Z,0.00
2019-02-15T00:16:45.193Z,0.00
2019-02-15T00:17:45.337Z,0.00
2019-02-15T00:18:45.451Z,0.00
2019-02-15T00:19:45.575Z,0.00
2019-02-15T00:20:45.717Z,0.00
2019-02-15T00:21:45.833Z,0.00
2019-02-15T00:22:45.965Z,0.00
2019-02-15T00:23:46.085Z,0.00
2019-02-15T00:24:46.213Z,0.00
2019-02-15T00:25:46.336Z,0.00
2019-02-15T00:26:46.466Z,0.00
2019-02-15T00:27:46.599Z,0.00
2019-02-15T00:28:46.724Z,0.00
2019-02-15T00:29:46.841Z,0.00
2019-02-15T00:30:46.980Z,0.00
2019-02-15T00:31:47.111Z,0.00
2019-02-15T00:32:47.224Z,0.00
2019-02-15T00:33:47.350Z,0.00
2019-02-15T00:34:47.474Z,0.00
2019-02-15T00:35:47.594Z,0.00
2019-02-15T00:36:47.723Z,0.00
2019-02-15T00:37:47.853Z,0.00
2019-02-15T00:38:47.975Z,0.00
2019-02-15T00:39:48.104Z,0.00
2019-02-15T00:40:48.225Z,0.00
2019-02-15T00:41:48.348Z,0.00
2019-02-15T00:42:48.471Z,0.00
2019-02-15T00:43:48.604Z,0.00
2019-02-15T00:44:48.730Z,0.00
2019-02-15T00:45:48.859Z,0.00
2019-02-15T00:46:48.970Z,0.00
2019-02-15T00:47:49.097Z,0.00
2019-02-15T00:48:49.220Z,0.00
2019-02-15T00:49:49.344Z,0.00
2019-02-15T00:50:49.467Z,0.00
2019-02-15T00:51:49.598Z,0.00
2019-02-15T00:52:49.725Z,0.00
2019-02-15T00:53:49.859Z,0.00
2019-02-15T00:54:49.975Z,0.00
2019-02-15T00:55:50.104Z,0.00
2019-02-15T00:56:50.224Z,0.00
2019-02-15T00:57:50.354Z,0.00
2019-02-15T00:58:50.477Z,0.00
2019-02-15T00:59:50.595Z,0.00
2019-02-15T01:00:50.728Z,0.00
2019-02-15T01:01:50.846Z,0.00
2019-02-15T01:02:50.976Z,0.00
2019-02-15T01:03:51.124Z,0.00
2019-02-15T01:04:51.245Z,0.00
2019-02-15T01:05:51.361Z,0.00
2019-02-15T01:06:51.487Z,0.00
2019-02-15T01:07:51.609Z,0.00
2019-02-15T01:08:51.736Z,0.00
2019-02-15T01:09:51.856Z,0.00
2019-02-15T01:10:51.972Z,0.00
2019-02-15T01:11:52.103Z,0.00
2019-02-15T01:12:52.225Z,0.00
2019-02-15T01:13:52.340Z,0.00
2019-02-15T01:14:52.465Z,0.00
2019-02-15T01:15:52.591Z,0.00
2019-02-15T01:16:52.725Z,0.00
2019-02-15T01:17:52.833Z,0.00
2019-02-15T01:18:52.961Z,0.00
2019-02-15T01:19:53.092Z,0.00
2019-02-15T01:20:53.217Z,0.00
2019-02-15T01:21:53.357Z,0.00
2019-02-15T01:22:53.478Z,0.00
2019-02-15T01:23:53.604Z,0.00
2019-02-15T01:24:53.728Z,0.00
2019-02-15T01:25:53.853Z,0.00
2019-02-15T01:26:53.977Z,0.00
2019-02-15T01:27:54.087Z,0.00
2019-02-15T01:28:54.217Z,0.00
2019-02-15T01:29:54.341Z,0.00
2019-02-15T01:30:54.462Z,0.00
2019-02-15T01:31:54.587Z,0.00
2019-02-15T01:32:54.711Z,0.00
2019-02-15T01:33:54.841Z,0.00
2019-02-15T01:34:54.966Z,0.00
2019-02-15T01:35:55.094Z,0.00
2019-02-15T01:36:55.219Z,0.00
2019-02-15T01:37:55.338Z,0.00
2019-02-15T01:38:55.467Z,0.00
2019-02-15T01:39:55.590Z,0.00
2019-02-15T01:40:55.725Z,0.00
2019-02-15T01:41:55.853Z,0.00
2019-02-15T01:42:55.978Z,0.00
2019-02-15T01:43:56.097Z,0.00
2019-02-15T01:44:56.224Z,0.00
2019-02-15T01:45:56.357Z,0.00
2019-02-15T01:46:56.477Z,0.00
2019-02-15T01:47:56.596Z,0.00
2019-02-15T01:48:56.723Z,0.00
2019-02-15T01:49:56.848Z,0.00
2019-02-15T01:50:56.980Z,0.00
2019-02-15T01:51:57.103Z,0.00
2019-02-15T01:52:57.230Z,0.00
2019-02-15T01:53:57.355Z,0.00
2019-02-15T01:54:57.478Z,0.00
2019-02-15T01:55:57.606Z,0.00
2019-02-15T01:56:57.735Z,0.00
2019-02-15T01:57:57.854Z,0.00
2019-02-15T01:58:57.979Z,0.00
2019-02-15T01:59:58.106Z,0.00
2019-02-15T02:00:58.223Z,0.00
2019-02-15T02:01:58.359Z,0.00
2019-02-15T02:02:58.477Z,0.00
2019-02-15T02:03:58.607Z,0.00
2019-02-15T02:04:58.731Z,0.00
2019-02-15T02:05:58.854Z,0.00
2019-02-15T02:06:58.974Z,0.00
2019-02-15T02:07:59.098Z,0.00
2019-02-15T02:08:59.227Z,0.00
2019-02-15T02:09:59.348Z,0.00
2019-02-15T02:10:59.464Z,0.00
2019-02-15T02:11:59.594Z,0.00
2019-02-15T02:12:59.721Z,0.00
2019-02-15T02:13:59.847Z,0.00
2019-02-15T02:14:59.974Z,0.00
2019-02-15T02:16:00.097Z,0.00
2019-02-15T02:17:00.221Z,0.00
2019-02-15T02:18:00.346Z,0.00
2019-02-15T02:19:00.471Z,0.00
2019-02-15T02:20:00.598Z,0.00
2019-02-15T02:21:00.728Z,0.00
2019-02-15T02:22:00.853Z,0.00
2019-02-15T02:23:01.864Z,0.00
2019-02-15T02:24:01.091Z,0.00
2019-02-15T02:25:01.215Z,0.00
2019-02-15T02:26:01.343Z,0.00
2019-02-15T02:27:01.470Z,0.00
2019-02-15T02:28:01.596Z,0.00
2019-02-15T02:29:01.717Z,0.00
2019-02-15T02:30:01.849Z,0.00
2019-02-15T02:31:01.963Z,0.00
2019-02-15T02:32:02.097Z,0.00
2019-02-15T02:33:02.215Z,0.00
2019-02-15T02:34:02.345Z,0.00
2019-02-15T02:35:02.467Z,0.00
2019-02-15T02:36:02.589Z,0.00
2019-02-15T02:37:02.712Z,0.00
2019-02-15T02:38:02.838Z,0.00
2019-02-15T02:39:02.968Z,0.00
2019-02-15T02:40:03.090Z,0.00
2019-02-15T02:41:03.222Z,0.00
2019-02-15T02:42:03.337Z,0.00
2019-02-15T02:43:03.495Z,0.00
2019-02-15T02:44:03.584Z,0.00
2019-02-15T02:45:03.704Z,0.00
2019-02-15T02:46:03.832Z,0.00
2019-02-15T02:47:03.955Z,0.00
2019-02-15T02:48:04.092Z,0.00
2019-02-15T02:49:04.220Z,0.00
2019-02-15T02:50:04.343Z,0.00
2019-02-15T02:51:04.472Z,0.00
2019-02-15T02:52:04.607Z,0.00
2019-02-15T02:53:04.719Z,0.00
2019-02-15T02:54:04.847Z,0.00
2019-02-15T02:55:04.969Z,0.00
2019-02-15T02:56:05.107Z,0.00
2019-02-15T02:57:05.222Z,0.00
2019-02-15T02:58:05.347Z,0.00
2019-02-15T02:59:05.474Z,0.00
2019-02-15T03:00:05.598Z,0.00
2019-02-15T03:01:05.733Z,0.00
2019-02-15T03:02:05.893Z,0.00
2019-02-15T03:03:05.990Z,0.00
2019-02-15T03:04:06.136Z,0.00
2019-02-15T03:05:06.240Z,0.00
2019-02-15T03:06:06.364Z,0.00
2019-02-15T03:07:06.491Z,0.00
2019-02-15T03:08:06.614Z,0.00
2019-02-15T03:09:06.741Z,0.00
2019-02-15T03:10:06.869Z,0.00
2019-02-15T03:11:06.992Z,0.00
2019-02-15T03:12:07.118Z,0.00
2019-02-15T03:13:07.293Z,0.00
2019-02-15T03:14:11.352Z,0.00
2019-02-15T03:15:07.493Z,0.00
2019-02-15T03:16:07.625Z,0.00
2019-02-15T03:17:07.752Z,0.00
2019-02-15T03:18:07.881Z,0.00
2019-02-15T03:19:08.003Z,0.00
2019-02-15T03:20:08.139Z,0.00
2019-02-15T03:21:08.268Z,0.00
2019-02-15T03:22:08.385Z,0.00
2019-02-15T03:23:08.509Z,0.00
2019-02-15T03:24:08.634Z,0.00
2019-02-15T03:25:08.759Z,0.00
2019-02-15T03:26:08.887Z,0.00
2019-02-15T03:27:09.019Z,0.00
2019-02-15T03:28:09.134Z,0.00
2019-02-15T03:29:09.248Z,0.00
2019-02-15T03:30:09.403Z,0.00
2019-02-15T03:31:09.498Z,0.00
2019-02-15T03:32:09.739Z,0.00
2019-02-15T03:33:09.759Z,0.00
2019-02-15T03:34:09.869Z,0.00
2019-02-15T03:35:10.002Z,0.00
2019-02-15T03:36:10.120Z,0.00
2019-02-15T03:37:10.251Z,0.00
2019-02-15T03:38:10.373Z,0.00
2019-02-15T03:39:10.492Z,0.00
2019-02-15T03:40:10.620Z,0.00
2019-02-15T03:41:10.744Z,0.00
2019-02-15T03:42:10.871Z,0.00
2019-02-15T03:43:11.007Z,0.00
2019-02-15T03:44:21.304Z,0.00
2019-02-15T03:45:11.241Z,0.00
2019-02-15T03:46:11.357Z,0.00
2019-02-15T03:47:11.483Z,0.00
2019-02-15T03:48:11.610Z,0.00
2019-02-15T03:49:11.741Z,0.00
2019-02-15T03:50:11.862Z,0.00
2019-02-15T03:51:11.987Z,0.00
2019-02-15T03:52:12.112Z,0.00
2019-02-15T03:53:12.236Z,0.00
2019-02-15T03:54:12.351Z,0.00
2019-02-15T03:55:12.487Z,0.00
2019-02-15T03:56:12.605Z,0.00
2019-02-15T03:57:12.729Z,0.00
2019-02-15T03:58:12.871Z,0.00
2019-02-15T03:59:13.004Z,0.00
2019-02-15T04:00:13.137Z,0.00
2019-02-15T04:01:13.256Z,0.00
2019-02-15T04:02:13.379Z,0.00
2019-02-15T04:03:13.515Z,0.00
2019-02-15T04:04:13.628Z,0.00
2019-02-15T04:05:13.770Z,0.00
2019-02-15T04:06:13.905Z,0.00
2019-02-15T04:07:14.014Z,0.00
2019-02-15T04:08:14.141Z,0.00
2019-02-15T04:09:14.265Z,0.00
2019-02-15T04:10:14.389Z,0.00
2019-02-15T04:11:14.515Z,0.00
2019-02-15T04:12:14.641Z,0.00
2019-02-15T04:13:14.764Z,0.00
2019-02-15T04:14:14.888Z,0.00
2019-02-15T04:15:15.012Z,0.00
2019-02-15T04:16:15.141Z,0.00
2019-02-15T04:17:15.263Z,0.00
2019-02-15T04:18:15.383Z,0.00
2019-02-15T04:19:15.507Z,0.00
2019-02-15T04:20:15.635Z,0.00
2019-02-15T04:21:15.765Z,0.00
2019-02-15T04:22:15.881Z,0.00
2019-02-15T04:23:16.009Z,0.00
2019-02-15T04:24:16.133Z,0.00
2019-02-15T04:25:16.265Z,0.00
2019-02-15T04:26:16.389Z,0.00
2019-02-15T04:27:16.512Z,0.00
2019-02-15T04:28:16.637Z,0.00
2019-02-15T04:29:16.760Z,0.00
2019-02-15T04:30:16.881Z,0.00
2019-02-15T04:31:17.006Z,0.00
2019-02-15T04:32:17.139Z,0.00
2019-02-15T04:33:17.266Z,0.00
2019-02-15T04:34:17.391Z,0.00
2019-02-15T04:35:17.510Z,0.00
2019-02-15T04:36:17.627Z,0.00
2019-02-15T04:37:17.751Z,0.00
2019-02-15T04:38:17.878Z,0.00
2019-02-15T04:39:18.005Z,0.00
2019-02-15T04:40:18.125Z,0.00
2019-02-15T04:41:18.246Z,0.00
2019-02-15T04:42:18.371Z,0.00
2019-02-15T04:43:18.497Z,0.00
2019-02-15T04:44:18.621Z,0.00
2019-02-15T04:45:18.746Z,0.00
2019-02-15T04:46:18.954Z,0.00
2019-02-15T04:47:19.005Z,0.00
2019-02-15T04:48:19.128Z,0.00
2019-02-15T04:49:19.262Z,0.00
2019-02-15T04:50:19.381Z,0.00
2019-02-15T04:51:19.506Z,0.00
2019-02-15T04:52:19.631Z,0.00
2019-02-15T04:53:19.757Z,0.00
2019-02-15T04:54:19.879Z,0.00
2019-02-15T04:55:20.002Z,0.00
2019-02-15T04:56:20.138Z,0.00
2019-02-15T04:57:20.255Z,0.00
2019-02-15T04:58:20.406Z,0.00
2019-02-15T04:59:20.502Z,0.00
2019-02-15T05:00:20.635Z,0.00
2019-02-15T05:01:20.752Z,0.00
2019-02-15T05:02:20.874Z,0.00
2019-02-15T05:03:21.000Z,0.00
2019-02-15T05:04:21.131Z,0.00
2019-02-15T05:05:21.272Z,0.00
2019-02-15T05:06:21.378Z,0.00
2019-02-15T05:07:21.506Z,0.00
2019-02-15T05:08:21.637Z,0.00
2019-02-15T05:09:23.803Z,0.00
2019-02-15T05:10:21.883Z,0.00
2019-02-15T05:11:21.997Z,0.00
2019-02-15T05:12:22.129Z,0.00
2019-02-15T05:13:22.266Z,0.00
2019-02-15T05:14:22.378Z,0.00
2019-02-15T05:15:22.510Z,0.00
2019-02-15T05:16:22.635Z,0.00
2019-02-15T05:17:22.762Z,0.00
2019-02-15T05:18:22.884Z,0.00
2019-02-15T05:19:23.010Z,0.00
2019-02-15T05:20:23.141Z,0.00
2019-02-15T05:21:23.248Z,0.00
2019-02-15T05:22:23.374Z,0.00
2019-02-15T05:23:23.492Z,0.00
2019-02-15T05:24:23.625Z,0.00
2019-02-15T05:25:23.748Z,0.00
2019-02-15T05:26:23.894Z,0.00
2019-02-15T05:27:24.007Z,0.00
2019-02-15T05:28:24.129Z,0.00
2019-02-15T05:29:24.239Z,0.00
2019-02-15T05:30:24.366Z,0.00
2019-02-15T05:31:24.488Z,0.00
2019-02-15T05:32:24.613Z,0.00
2019-02-15T05:33:24.741Z,0.00
2019-02-15T05:34:24.876Z,0.00
2019-02-15T05:35:24.991Z,0.00
2019-02-15T05:36:25.110Z,0.00
2019-02-15T05:37:25.237Z,0.00
2019-02-15T05:38:25.357Z,0.00
2019-02-15T05:39:25.479Z,0.00
2019-02-15T05:40:25.605Z,0.00
2019-02-15T05:41:25.726Z,0.00
2019-02-15T05:42:25.854Z,0.00
2019-02-15T05:43:25.993Z,0.00
2019-02-15T05:44:26.100Z,0.00
2019-02-15T05:45:26.230Z,0.00
2019-02-15T05:46:26.356Z,0.00
2019-02-15T05:47:26.491Z,0.00
2019-02-15T05:48:26.595Z,0.00
2019-02-15T05:49:26.730Z,0.00
2019-02-15T05:50:26.844Z,0.00
2019-02-15T05:51:26.970Z,0.00
2019-02-15T05:52:27.087Z,0.00
2019-02-15T05:53:27.215Z,0.00
2019-02-15T05:54:27.354Z,0.00
2019-02-15T05:55:27.473Z,0.00
2019-02-15T05:56:27.603Z,0.00
2019-02-15T05:57:27.726Z,0.00
2019-02-15T05:58:27.875Z,0.00
2019-02-15T05:59:28.001Z,0.00
2019-02-15T06:00:36.689Z,0.00
2019-02-15T06:01:28.284Z,0.00
2019-02-15T06:02:28.369Z,0.00
2019-02-15T06:03:28.498Z,0.00
2019-02-15T06:04:28.620Z,0.00
2019-02-15T06:05:28.747Z,0.00
2019-02-15T06:06:28.867Z,4.00
2019-02-15T06:07:29.002Z,4.00
2019-02-15T06:08:31.209Z,4.00
2019-02-15T06:09:29.316Z,0.00
2019-02-15T06:10:29.390Z,4.00
2019-02-15T06:11:29.509Z,4.00
2019-02-15T06:12:29.643Z,4.00
2019-02-15T06:13:29.758Z,8.00
2019-02-15T06:14:29.885Z,8.00
2019-02-15T06:15:30.018Z,8.00
2019-02-15T06:16:30.134Z,12.00
2019-02-15T06:17:30.259Z,12.00
2019-02-15T06:18:30.378Z,16.00
2019-02-15T06:19:30.508Z,16.00
2019-02-15T06:20:30.634Z,24.00
2019-02-15T06:21:30.761Z,28.00
2019-02-15T06:22:30.877Z,32.00
2019-02-15T06:23:31.011Z,40.00
2019-02-15T06:24:31.125Z,44.00
2019-02-15T06:25:31.255Z,52.00
2019-02-15T06:26:31.373Z,56.00
2019-02-15T06:27:31.495Z,64.00
2019-02-15T06:28:31.623Z,72.00
2019-02-15T06:29:31.745Z,84.00
2019-02-15T06:30:31.864Z,96.00
2019-02-15T06:31:31.999Z,104.00
2019-02-15T06:32:32.120Z,116.00
2019-02-15T06:33:32.236Z,128.00
2019-02-15T06:34:32.367Z,144.00
2019-02-15T06:35:33.119Z,156.00
2019-02-15T06:36:32.621Z,172.00
2019-02-15T06:37:32.753Z,188.00
2019-02-15T06:38:35.083Z,204.00
2019-02-15T06:39:33.038Z,224.00
2019-02-15T06:40:33.158Z,240.00
2019-02-15T06:41:33.287Z,260.00
2019-02-15T06:42:33.410Z,280.00
2019-02-15T06:43:33.545Z,304.00
2019-02-15T06:44:33.661Z,324.00
2019-02-15T06:45:33.787Z,348.00
2019-02-15T06:46:33.912Z,372.00
2019-02-15T06:47:34.034Z,392.00
2019-02-15T06:48:34.159Z,420.00
2019-02-15T06:49:34.283Z,440.00
2019-02-15T06:50:34.409Z,468.00
2019-02-15T06:51:34.532Z,488.00
2019-02-15T06:52:34.667Z,512.00
2019-02-15T06:53:34.803Z,532.00
2019-02-15T06:54:34.901Z,552.00
2019-02-15T06:55:35.027Z,580.00
2019-02-15T06:56:35.151Z,600.00
2019-02-15T06:57:35.276Z,628.00
2019-02-15T06:58:35.402Z,648.00
2019-02-15T06:59:35.528Z,676.00
2019-02-15T07:00:35.653Z,700.00
2019-02-15T07:01:35.779Z,728.00
2019-02-15T07:02:35.907Z,756.00
2019-02-15T07:03:36.042Z,780.00
2019-02-15T07:04:36.149Z,808.00
2019-02-15T07:05:36.281Z,832.00
2019-02-15T07:06:36.409Z,860.00
2019-02-15T07:07:36.533Z,888.00
2019-02-15T07:08:36.647Z,912.00
2019-02-15T07:09:36.779Z,932.00
2019-02-15T07:10:36.906Z,960.00
2019-02-15T07:11:37.026Z,980.00
2019-02-15T07:12:37.149Z,1004.00
2019-02-15T07:13:37.282Z,1028.00
2019-02-15T07:14:37.406Z,1048.00
2019-02-15T07:15:37.533Z,1076.00
2019-02-15T07:16:37.670Z,1092.00
2019-02-15T07:17:37.783Z,1120.00
2019-02-15T07:18:37.899Z,1136.00
2019-02-15T07:19:38.034Z,1160.00
2019-02-15T07:20:38.159Z,1180.00
2019-02-15T07:21:38.279Z,1200.00
2019-02-15T07:22:38.407Z,1220.00
2019-02-15T07:23:38.528Z,1240.00
2019-02-15T07:24:38.646Z,1260.00
2019-02-15T07:25:38.774Z,1280.00
2019-02-15T07:26:38.901Z,1300.00
2019-02-15T07:27:39.019Z,1328.00
2019-02-15T07:28:39.158Z,1344.00
2019-02-15T07:29:39.265Z,1368.00
2019-02-15T07:30:39.390Z,1388.00
2019-02-15T07:31:39.501Z,1408.00
2019-02-15T07:32:39.631Z,1436.00
2019-02-15T07:33:39.745Z,1460.00
2019-02-15T07:34:39.872Z,1484.00
2019-02-15T07:35:40.021Z,1512.00
2019-02-15T07:36:40.139Z,1536.00
2019-02-15T07:37:40.258Z,1560.00
2019-02-15T07:38:40.386Z,1584.00
2019-02-15T07:39:40.512Z,1608.00
2019-02-15T07:40:40.631Z,1640.00
2019-02-15T07:41:40.756Z,1684.00
2019-02-15T07:42:40.873Z,1740.00
2019-02-15T07:43:40.998Z,1808.00
2019-02-15T07:44:41.131Z,1876.00
2019-02-15T07:45:43.135Z,1948.00
2019-02-15T07:46:41.386Z,1980.00
2019-02-15T07:47:41.500Z,2000.00
2019-02-15T07:48:41.629Z,2008.00
2019-02-15T07:49:41.741Z,2004.00
2019-02-15T07:50:41.870Z,2004.00
2019-02-15T07:51:41.990Z,2024.00
2019-02-15T07:52:42.113Z,2020.00
2019-02-15T07:53:42.237Z,2020.00
2019-02-15T07:54:42.363Z,2024.00
2019-02-15T07:55:42.488Z,2004.00
2019-02-15T07:56:42.619Z,2060.00
2019-02-15T07:57:42.751Z,2088.00
2019-02-15T07:58:42.879Z,2108.00
2019-02-15T07:59:42.998Z,2084.00
2019-02-15T08:00:43.132Z,2080.00
2019-02-15T08:01:43.255Z,2072.00
2019-02-15T08:02:43.379Z,2084.00
2019-02-15T08:03:43.507Z,2200.00
2019-02-15T08:04:43.625Z,2292.00
2019-02-15T08:05:43.746Z,2380.00
2019-02-15T08:06:43.886Z,2380.00
2019-02-15T08:07:44.001Z,2456.00
2019-02-15T08:08:44.126Z,2516.00
2019-02-15T08:09:44.247Z,2516.00
2019-02-15T08:10:44.363Z,2520.00
2019-02-15T08:11:44.489Z,2524.00
2019-02-15T08:12:44.618Z,2520.00
2019-02-15T08:13:44.744Z,2532.00
2019-02-15T08:14:44.875Z,2556.00
2019-02-15T08:15:51.580Z,2576.00
2019-02-15T08:16:45.115Z,2592.00
2019-02-15T08:17:45.239Z,2620.00
2019-02-15T08:18:45.361Z,2652.00
2019-02-15T08:19:45.499Z,2696.00
2019-02-15T08:20:45.617Z,2728.00
2019-02-15T08:21:45.750Z,2764.00
2019-02-15T08:22:45.871Z,2788.00
2019-02-15T08:23:45.993Z,2808.00
2019-02-15T08:24:46.124Z,2820.00
2019-02-15T08:25:46.246Z,2832.00
2019-02-15T08:26:46.370Z,2856.00
2019-02-15T08:27:46.492Z,2884.00
2019-02-15T08:28:46.614Z,2908.00
2019-02-15T08:29:46.742Z,2920.00
2019-02-15T08:30:46.869Z,2944.00
2019-02-15T08:31:46.993Z,2960.00
2019-02-15T08:32:47.116Z,2976.00
2019-02-15T08:33:47.253Z,2988.00
2019-02-15T08:34:47.375Z,3000.00
2019-02-15T08:35:47.498Z,3012.00
2019-02-15T08:36:47.622Z,3024.00
2019-02-15T08:37:47.744Z,3040.00
2019-02-15T08:38:48.066Z,3060.00
2019-02-15T08:39:48.010Z,3080.00
2019-02-15T08:40:48.198Z,3092.00
2019-02-15T08:42:00.568Z,3100.00
2019-02-15T08:42:48.382Z,3112.00
2019-02-15T08:43:48.510Z,3120.00
2019-02-15T08:44:48.633Z,3124.00
2019-02-15T08:45:48.756Z,3140.00
2019-02-15T08:46:48.889Z,3148.00
2019-02-15T08:47:49.006Z,3156.00
2019-02-15T08:48:49.139Z,3164.00
2019-02-15T08:49:49.266Z,3168.00
2019-02-15T08:50:49.384Z,3180.00
2019-02-15T08:51:49.534Z,3176.00
2019-02-15T08:52:49.658Z,3188.00
2019-02-15T08:53:50.447Z,3184.00
2019-02-15T08:54:49.905Z,3192.00
2019-02-15T08:55:50.033Z,3216.00
2019-02-15T08:56:50.152Z,3240.00
2019-02-15T08:57:50.277Z,3264.00
2019-02-15T08:58:50.407Z,3300.00
2019-02-15T08:59:50.536Z,3328.00
2019-02-15T09:00:50.657Z,3360.00
2019-02-15T09:01:50.789Z,3404.00
2019-02-15T09:02:50.907Z,3444.00
2019-02-15T09:03:51.038Z,3500.00
2019-02-15T09:04:51.158Z,3536.00
2019-02-15T09:05:51.291Z,3580.00
2019-02-15T09:06:51.409Z,3608.00
2019-02-15T09:07:51.540Z,3632.00
2019-02-15T09:08:51.659Z,3668.00
2019-02-15T09:09:51.791Z,3696.00
2019-02-15T09:10:51.917Z,3724.00
2019-02-15T09:11:52.049Z,3772.00
2019-02-15T09:12:52.220Z,3812.00
2019-02-15T09:13:52.317Z,3856.00
2019-02-15T09:14:52.430Z,3884.00
2019-02-15T09:15:52.560Z,3920.00
2019-02-15T09:16:52.699Z,3948.00
2019-02-15T09:17:52.822Z,3988.00
2019-02-15T09:18:52.939Z,4040.00
2019-02-15T09:19:53.064Z,4100.00
2019-02-15T09:20:53.187Z,4144.00
2019-02-15T09:21:53.314Z,4192.00
2019-02-15T09:22:53.431Z,4228.00
2019-02-15T09:23:53.564Z,4264.00
2019-02-15T09:24:53.691Z,4296.00
2019-02-15T09:25:53.827Z,4320.00
2019-02-15T09:26:53.946Z,4336.00
2019-02-15T09:27:54.079Z,4364.00
2019-02-15T09:28:54.214Z,4388.00
2019-02-15T09:29:54.334Z,4428.00
2019-02-15T09:30:54.463Z,4476.00
2019-02-15T09:31:54.585Z,4520.00
2019-02-15T09:32:54.715Z,4556.00
2019-02-15T09:33:54.844Z,4592.00
2019-02-15T09:34:54.964Z,4628.00
2019-02-15T09:35:55.093Z,4668.00
2019-02-15T09:36:55.228Z,4688.00
2019-02-15T09:37:55.341Z,4724.00
2019-02-15T09:38:55.471Z,4752.00
2019-02-15T09:39:55.588Z,4792.00
2019-02-15T09:40:55.716Z,4840.00
2019-02-15T09:41:55.842Z,4888.00
2019-02-15T09:42:55.971Z,4924.00
2019-02-15T09:43:56.094Z,4960.00
2019-02-15T09:44:56.231Z,5004.00
2019-02-15T09:45:56.349Z,5044.00
2019-02-15T09:46:56.485Z,5076.00
2019-02-15T09:47:56.606Z,5120.00
2019-02-15T09:48:56.738Z,5164.00
2019-02-15T09:49:56.864Z,5220.00
2019-02-15T09:50:56.996Z,5256.00
2019-02-15T09:51:57.120Z,5288.00
2019-02-15T09:52:57.254Z,5340.00
2019-02-15T09:53:57.372Z,5380.00
2019-02-15T09:54:57.519Z,5412.00
2019-02-15T09:55:57.638Z,5444.00
2019-02-15T09:56:57.766Z,5468.00
2019-02-15T09:57:57.898Z,5484.00
2019-02-15T09:58:58.024Z,5496.00
2019-02-15T09:59:58.134Z,5508.00
2019-02-15T10:00:58.283Z,5516.00
2019-02-15T10:01:58.420Z,5508.00
2019-02-15T10:02:58.542Z,5492.00
2019-02-15T10:03:58.666Z,5480.00
2019-02-15T10:04:58.809Z,5456.00
2019-02-15T10:05:58.935Z,4784.00
2019-02-15T10:06:59.071Z,4708.00
2019-02-15T10:07:59.199Z,5288.00
2019-02-15T10:08:59.332Z,5504.00
2019-02-15T10:09:59.458Z,5580.00
2019-02-15T10:10:59.582Z,5652.00
2019-02-15T10:11:59.719Z,5716.00
2019-02-15T10:12:59.839Z,5776.00
2019-02-15T10:13:59.971Z,5804.00
2019-02-15T10:15:00.119Z,5848.00
2019-02-15T10:16:00.231Z,5864.00
2019-02-15T10:17:00.354Z,5852.00
2019-02-15T10:18:00.493Z,5828.00
2019-02-15T10:19:00.608Z,5808.00
2019-02-15T10:20:00.736Z,5800.00
2019-02-15T10:21:00.865Z,5808.00
2019-02-15T10:22:00.998Z,5820.00
2019-02-15T10:23:01.133Z,5788.00
2019-02-15T10:24:01.254Z,5776.00
2019-02-15T10:25:01.408Z,5868.00
2019-02-15T10:26:01.537Z,11300.00
2019-02-15T10:27:01.650Z,14620.00
2019-02-15T10:28:01.784Z,8936.00
2019-02-15T10:29:01.911Z,8000.00
2019-02-15T10:30:02.676Z,13472.00
2019-02-15T10:31:02.165Z,18240.00
2019-02-15T10:32:02.295Z,13696.00
2019-02-15T10:33:02.417Z,10112.00
2019-02-15T10:34:02.555Z,15632.00
2019-02-15T10:35:02.690Z,16196.00
2019-02-15T10:36:02.829Z,10436.00
2019-02-15T10:37:02.957Z,11220.00
2019-02-15T10:38:03.087Z,12716.00
2019-02-15T10:39:03.220Z,23648.00
2019-02-15T10:40:03.342Z,34496.00
2019-02-15T10:41:03.479Z,24160.00
2019-02-15T10:42:03.607Z,20000.00
2019-02-15T10:43:03.729Z,44864.00
2019-02-15T10:44:03.874Z,69632.00
2019-02-15T10:45:03.992Z,80608.00
2019-02-15T10:46:04.127Z,84640.00
2019-02-15T10:47:04.264Z,84480.00
2019-02-15T10:48:04.396Z,80032.00
2019-02-15T10:49:04.519Z,71072.00
2019-02-15T10:50:05.223Z,73056.00
2019-02-15T10:51:04.780Z,78976.00
2019-02-15T10:52:04.913Z,90720.00
2019-02-15T10:53:05.038Z,100896.00
2019-02-15T10:54:05.175Z,91360.00
2019-02-15T10:55:05.314Z,64128.00
2019-02-15T10:56:05.443Z,37888.00
2019-02-15T10:57:05.583Z,56576.00
2019-02-15T10:58:05.716Z,52128.00
2019-02-15T10:59:05.848Z,67616.00
2019-02-15T11:00:05.991Z,93088.00
2019-02-15T11:01:06.124Z,104768.00
2019-02-15T11:02:06.261Z,117344.00
2019-02-15T11:03:06.402Z,119104.00
2019-02-15T11:04:06.537Z,105984.00
2019-02-15T11:05:06.678Z,92928.00
2019-02-15T11:06:06.833Z,66048.00
2019-02-15T11:07:06.967Z,42080.00
2019-02-15T11:08:07.103Z,22240.00
2019-02-15T11:09:07.244Z,12084.00
2019-02-15T11:10:07.369Z,45632.00
2019-02-15T11:11:07.506Z,71008.00
2019-02-15T11:12:07.655Z,75488.00
2019-02-15T11:13:07.783Z,86272.00
2019-02-15T11:14:07.910Z,107584.00
2019-02-15T11:15:08.046Z,107872.00
2019-02-15T11:16:08.186Z,103936.00
2019-02-15T11:17:08.323Z,93184.00
2019-02-15T11:18:08.456Z,63872.00
2019-02-15T11:19:08.591Z,62752.00
2019-02-15T11:20:08.735Z,69312.00
2019-02-15T11:21:08.865Z,73536.00
2019-02-15T11:22:09.016Z,46080.00
2019-02-15T11:23:09.146Z,14916.00
2019-02-15T11:24:09.284Z,8600.00
2019-02-15T11:25:09.416Z,13176.00
2019-02-15T11:26:09.572Z,41920.00
2019-02-15T11:27:09.707Z,88672.00
2019-02-15T11:28:09.838Z,111968.00
2019-02-15T11:29:09.988Z,117280.00
2019-02-15T11:30:10.118Z,111744.00
2019-02-15T11:31:10.254Z,93312.00
2019-02-15T11:32:10.384Z,82784.00
2019-02-15T11:33:10.524Z,84256.00
2019-02-15T11:34:10.665Z,84480.00
2019-02-15T11:35:10.809Z,92928.00
2019-02-15T11:36:10.942Z,102336.00
2019-02-15T11:37:11.079Z,106208.00
2019-02-15T11:38:11.232Z,114496.00
2019-02-15T11:39:11.366Z,82144.00
2019-02-15T11:40:11.498Z,72352.00
2019-02-15T11:41:11.645Z,78880.00
2019-02-15T11:42:11.773Z,73536.00
2019-02-15T11:43:11.916Z,68000.00
2019-02-15T11:44:12.058Z,78720.00
2019-02-15T11:45:12.204Z,58176.00
2019-02-15T11:46:12.349Z,54528.00
2019-02-15T11:47:12.489Z,69792.00
2019-02-15T11:48:12.642Z,83264.00
2019-02-15T11:49:12.786Z,81760.00
2019-02-15T11:50:12.931Z,73664.00
2019-02-15T11:51:13.062Z,59232.00
2019-02-15T11:52:13.207Z,72192.00
2019-02-15T11:53:13.358Z,89600.00
2019-02-15T11:54:23.144Z,78592.00
2019-02-15T11:55:13.638Z,77248.00
2019-02-15T11:56:13.780Z,79360.00
2019-02-15T11:57:13.926Z,78368.00
2019-02-15T11:58:14.073Z,72608.00
2019-02-15T11:59:14.215Z,66048.00
2019-02-15T12:00:14.771Z,64032.00
2019-02-15T12:01:14.514Z,88160.00
2019-02-15T12:02:14.642Z,100064.00
2019-02-15T12:03:14.786Z,108256.00
2019-02-15T12:04:14.936Z,101504.00
2019-02-15T12:05:15.076Z,94720.00
2019-02-15T12:06:15.221Z,87808.00
2019-02-15T12:07:15.380Z,90336.00
2019-02-15T12:08:15.511Z,90400.00
2019-02-15T12:09:15.651Z,97376.00
2019-02-15T12:10:16.318Z,113088.00
2019-02-15T12:11:15.965Z,121120.00
2019-02-15T12:12:16.117Z,123872.00
2019-02-15T12:13:16.262Z,117824.00
2019-02-15T12:14:16.410Z,112256.00
2019-02-15T12:15:16.563Z,104704.00
2019-02-15T12:16:16.704Z,99008.00
2019-02-15T12:17:16.867Z,101216.00
2019-02-15T12:18:17.022Z,88224.00
2019-02-15T12:19:17.169Z,91136.00
2019-02-15T12:20:17.317Z,103712.00
2019-02-15T12:21:17.473Z,98656.00
2019-02-15T12:22:17.640Z,82880.00
2019-02-15T12:23:17.793Z,66048.00
2019-02-15T12:24:17.931Z,59712.00
2019-02-15T12:25:18.069Z,64960.00
2019-02-15T12:26:18.228Z,80288.00
2019-02-15T12:27:18.385Z,70240.00
2019-02-15T12:28:18.532Z,70624.00
2019-02-15T12:29:18.680Z,58656.00
2019-02-15T12:30:18.870Z,54144.00
2019-02-15T12:31:18.975Z,88640.00
2019-02-15T12:32:19.137Z,97312.00
2019-02-15T12:33:19.284Z,89664.00
2019-02-15T12:34:19.526Z,74528.00
2019-02-15T12:35:19.639Z,55616.00
2019-02-15T12:36:19.793Z,46560.00
2019-02-15T12:37:19.939Z,62016.00
2019-02-15T12:38:20.097Z,92960.00
2019-02-15T12:39:20.243Z,82688.00